• Join FlightAware (Why Join?)
  • Login
  • US Flag 
01:16PM EDT


 

Airport Tracker/Info


-or-


 

Live Flight TrackerFlight Track Log ✈ CPA888 ✈ 22-Apr-2012 ✈ VHHH / HKG - CYVR

Flight Track Log - Related Links

Times and Time Zones

All times are in EDT time to prevent confusion due to time zone crossing. See the CPA888 flight status page for this flight to view local times or setup timezone preferences in your user account.

Time Position Orientation Groundspeed Altitude Reporting Facility
EDT Latitude Longitude Course Direction KTS MPH feet Rate Location/Type
08:23PM 46.1667 -173.2167 68° East 613 705 35,000  Level Oakland Oceanic (ODAPS)
08:37PM 46.9833 -170.0500 64° Northeast 548 631 35,000  Level Oakland Oceanic (ODAPS)
08:38PM 47.0000 -170.0000 70° East 587 676 35,000  Level Oakland Oceanic (ODAPS)
08:50PM 47.7333 -166.8833 72° East 579 666 35,000  Level Oakland Oceanic (ODAPS)
09:04PM 48.3833 -163.6833 74° East 581 669 35,000  Level Oakland Oceanic (ODAPS)
09:18PM 48.9333 -160.4333 77° East 556 640 35,000  Level Oakland Oceanic (ODAPS)
09:20PM 49.0000 -160.0000 86° East 550 633 35,000  Level Oakland Oceanic (ODAPS)
09:32PM 49.0833 -157.1500 88° East 542 624 35,000  Level Oakland Oceanic (ODAPS)
09:46PM 49.1000 -153.9667 91° East 520 598 36,000  Climbing Oakland Oceanic (ODAPS)
10:00PM 49.0333 -150.9500 93° East 503 579 36,000  Level Oakland Oceanic (ODAPS)
10:04PM 49.0000 -150.0000 86° East 498 573 36,000  Level Oakland Oceanic (ODAPS)
10:14PM 49.0667 -148.0500 88° East 500 575 36,000  Level Oakland Oceanic (ODAPS)
10:28PM 49.1000 -145.1833 89° East 495 570 36,000  Level Oakland Oceanic (ODAPS)
10:41PM 49.0833 -142.3000 92° East 495 570 36,000  Level Oakland Oceanic (ODAPS)
10:52PM 49.0000 -140.0000 87° East 496 571 36,000 60 Level Oakland Oceanic (ODAPS)
10:55PM 49.0167 -139.4333 87° East 496 571 37,000  Climbing Oakland Oceanic (ODAPS)
11:09PM 49.0667 -136.5000 90° East 500 575 37,000  Level Oakland Oceanic (ODAPS)
11:23PM 49.0333 -133.5500 93° East 517 595 37,000  Level Oakland Oceanic (ODAPS)
11:30PM 48.9667 -131.9167 90° East 480 552 37,000  Level Vancouver Center
11:31PM 48.9667 -131.7167 90° East 500 575 37,000  Level Vancouver Center
11:32PM 48.9667 -131.5167 90° East 510 587 37,000  Level Vancouver Center
11:33PM 48.9667 -131.2833 103° East 510 587 37,000  Level Vancouver Center
11:34PM 48.9333 -131.0667 90° East 510 587 37,000  Level Vancouver Center
11:35PM 48.9333 -130.8500 83° East 510 587 37,000  Level Vancouver Center
11:36PM 48.9500 -130.6500 90° East 510 587 37,000  Level Vancouver Center
11:37PM 48.9500 -130.4167 84° East 520 598 37,000  Level Vancouver Center
11:38PM 48.9667 -130.1833 90° East 520 598 37,000  Level Vancouver Center
11:39PM 48.9667 -129.9500 83° East 520 598 37,000  Level Vancouver Center
11:40PM 48.9833 -129.7500 90° East 520 598 37,000  Level Vancouver Center
11:41PM 48.9833 -129.5167 90° East 530 610 37,000  Level Vancouver Center
11:42PM 48.9833 -129.3000 83° East 530 610 37,000  Level Vancouver Center
11:43PM 49.0000 -129.1000 90° East 530 610 37,000  Level Vancouver Center
11:44PM 49.0000 -128.8667 90° East 530 610 37,000  Level Vancouver Center
11:45PM 49.0000 -128.6333 84° East 530 610 37,000  Level Vancouver Center
11:46PM 49.0167 -128.4000 90° East 530 610 37,000  Level Vancouver Center
11:47PM 49.0167 -128.1833 90° East 530 610 37,000  Level Vancouver Center
11:48PM 49.0167 -127.9500 90° East 530 610 37,000  Level Vancouver Center
11:49PM 49.0167 -127.7500 84° East 530 610 37,000  Level Vancouver Center
11:50PM 49.0333 -127.4833 97° East 540 621 37,000  Level Vancouver Center
11:51PM 49.0167 -127.2833 84° East 540 621 37,000  Level Vancouver Center
11:52PM 49.0333 -127.0333 90° East 540 621 37,000  Level Vancouver Center
11:53PM 49.0333 -126.8333 90° East 540 621 37,000  Level Vancouver Center
11:54PM 49.0333 -126.6000 90° East 540 621 37,000  Level Vancouver Center
11:55PM 49.0333 -126.3667 90° East 540 621 37,000 -900 Level Vancouver Center
11:56PM 49.0333 -126.1500 90° East 540 621 35,300 -2,280 Descending Vancouver Center
11:57PM 49.0333 -125.9167 96° East 540 621 32,500 -2,580 Descending Vancouver Center
11:58PM 49.0167 -125.6833 84° East 540 621 30,200 -2,160 Descending Vancouver Center
11:59PM 49.0333 -125.4500 83° East 530 610 28,200 -2,100 Descending Vancouver Center
12:00AM 49.0500 -125.2333 90° East 520 598 26,100 -2,040 Descending Vancouver Center
12:01AM 49.0500 -125.0167 90° East 500 575 24,100 -2,040 Descending Vancouver Center
12:02AM 49.0500 -124.8167 90° East 480 552 22,000 -2,040 Descending Vancouver Center
12:03AM 49.0500 -124.6333 90° East 470 541 20,100 -1,980 Descending Vancouver Center
12:04AM 49.0500 -124.4333 90° East 450 518 18,100 -1,800 Descending Vancouver Center
12:05AM 49.0500 -124.2500 90° East 440 506 16,600 -1,680 Descending Vancouver Center
12:06AM 49.0500 -124.0833 90° East 420 483 14,800 -1,860 Descending Vancouver Center
12:07AM 49.0500 -123.9000 90° East 410 472 12,900 -1,260 Descending Vancouver Center
12:08AM 49.0500 -123.7500 90° East 390 449 12,300 -660 Descending Vancouver Center
12:09AM 49.0500 -123.6000 90° East 350 403 11,600 -780 Descending Vancouver Center
12:10AM 49.0500 -123.4667 90° East 330 380 10,800 -900 Descending Vancouver Center
12:11AM 49.0500 -123.3167 90° East 320 368 9,800 -1,200 Descending Vancouver Center
12:12AM 49.0500 -123.1833 90° East 300 345 8,400 -1,620 Descending Vancouver Center
12:13AM 49.0500 -123.0833 90° East 280 322 6,600 -1,620 Descending Vancouver Center
12:14AM 49.0500 -122.9833 59° Northeast 250 288 5,200 -1,320 Descending Vancouver Center
12:15AM 49.0833 -122.9000 360° North 220 253 4,000 -1,140 Descending Vancouver Center
12:16AM 49.1333 -122.9000 301° West 200 230 3,000 -900 Descending Vancouver Center
12:17AM 49.1667 -122.9833 270° West 190 219 2,200 -840 Descending Vancouver Center
12:18AM 49.1667 -123.0667 297° West 170 196 1,400 -840 Descending Vancouver Center
12:19AM 49.1833 -123.1167 297° West 150 173 600 -840 Descending Vancouver Center